Chesterville, Mississippi
Current Conditions -  °F | °C
As of 7:53 PM on Saturday 20 Dec 2014 (Local Time) from KTUP Reporting Station
Clear Clear  
Wind Chill: 32°   Ceiling: Unl
Heat Index: 37°   Visibility: 10mi
Dew Point: 33°   Wind: 7mph
Humidity: 86%   Direction: 30°NNE
Pressure: 30.23"   Gusts: NA
Location:  34.2235°N, 88.7398°W
Report Text: KTUP 210153Z 03006KT 10SM CLR 03/01 A3023 RMK AO2 SLP238 T00280006
Loading
Personal Weather Stations






























Interactive Weather Map New forecast layout! Learn more

10-Day Weather Forecast

Advertisements
Track Severe Weather on mobile